Time;durP1;ratioP1;P1;durP2;ratioP2;P2;SDS_P1;SDS_P2;PMS_P1;PMS_P2;Temp;Humidity;BMP_temperature;BMP_pressure;BME280_temperature;BME280_humidity;BME280_pressure;Samples;Min_cycle;Max_cycle;Signal;HPM_P1;HPM_P2
2021/03/07 00:01:08;;;;;;;12.88;6.05;;;;;;;1.19;65.41;102967.28;4945109;28;20055;-77
2021/03/07 00:03:35;;;;;;;13.55;5.57;;;;;;;1.25;66.00;102966.31;4952790;28;20502;-76
2021/03/07 00:06:01;;;;;;;14.60;6.10;;;;;;;1.19;66.16;102960.38;4946339;28;20065;-76
2021/03/07 00:08:37;;;;;;;10.32;5.40;;;;;;;1.23;66.86;102962.91;4937341;28;20469;-77
2021/03/07 00:11:18;;;;;;;12.65;5.47;;;;;;;1.10;66.72;102937.34;4953330;28;20059;-77
2021/03/07 00:13:44;;;;;;;10.98;5.80;;;;;;;1.17;66.20;102956.13;4956374;28;20098;-76
2021/03/07 00:16:10;;;;;;;14.75;5.20;;;;;;;1.12;66.84;102947.66;4963756;28;20647;-77
2021/03/07 00:18:36;;;;;;;12.70;5.70;;;;;;;1.12;67.66;102961.41;4945803;28;20054;-76
2021/03/07 00:21:02;;;;;;;9.82;5.65;;;;;;;1.05;67.71;102946.91;4932055;28;20586;-76
2021/03/07 00:23:28;;;;;;;13.38;6.10;;;;;;;1.12;68.13;102955.41;4959317;28;20066;-75
2021/03/07 00:25:54;;;;;;;12.13;6.22;;;;;;;1.09;67.66;102953.72;4958507;28;20533;-77
2021/03/07 00:28:20;;;;;;;10.23;4.43;;;;;;;1.09;67.92;102950.28;4944226;28;20063;-76
2021/03/07 00:30:46;;;;;;;8.93;5.03;;;;;;;1.16;67.94;102955.28;4957646;28;20062;-76
2021/03/07 00:33:12;;;;;;;13.25;5.32;;;;;;;1.17;68.17;102945.78;4941197;28;20058;-76
2021/03/07 00:35:39;;;;;;;11.00;5.00;;;;;;;1.19;67.58;102956.94;4958822;28;20066;-76
2021/03/07 00:38:05;;;;;;;10.93;4.68;;;;;;;1.15;66.45;102952.72;4952988;28;20055;-76
2021/03/07 00:40:31;;;;;;;11.98;5.30;;;;;;;1.12;66.21;102950.22;4935150;28;20106;-77
2021/03/07 00:42:57;;;;;;;14.80;5.88;;;;;;;1.13;66.61;102954.50;4939814;28;20062;-76
2021/03/07 00:45:23;;;;;;;13.25;5.82;;;;;;;1.04;66.69;102947.81;4943745;28;20479;-76
2021/03/07 00:47:49;;;;;;;8.25;5.05;;;;;;;1.08;65.67;102964.06;4948085;28;20462;-76
2021/03/07 00:50:24;;;;;;;13.27;5.88;;;;;;;1.03;67.34;102950.41;4944018;28;20468;-76
2021/03/07 00:52:55;;;;;;;10.45;5.05;;;;;;;1.01;66.15;102955.63;4949858;28;20059;-77
2021/03/07 00:55:22;;;;;;;10.15;5.20;;;;;;;0.90;66.28;102942.06;4960984;28;20059;-77
2021/03/07 00:57:48;;;;;;;14.13;5.60;;;;;;;0.88;66.89;102941.25;4961604;28;20152;-77
2021/03/07 01:00:23;;;;;;;11.68;5.63;;;;;;;0.83;66.96;102946.50;4943419;28;20087;-77
2021/03/07 01:02:49;;;;;;;11.38;5.18;;;;;;;0.83;66.50;102946.50;4958775;28;20066;-75
2021/03/07 01:05:16;;;;;;;11.60;5.03;;;;;;;0.81;67.07;102947.44;4921178;28;20070;-75
2021/03/07 01:07:42;;;;;;;12.63;5.13;;;;;;;0.79;67.12;102950.88;4949687;28;20839;-76
2021/03/07 01:10:15;;;;;;;11.57;5.20;;;;;;;0.77;67.36;102941.47;4956489;28;20149;-75
2021/03/07 01:12:42;;;;;;;12.23;6.47;;;;;;;0.79;67.74;102939.72;4942384;28;20059;-75
2021/03/07 01:15:09;;;;;;;17.23;7.93;;;;;;;0.75;66.63;102938.91;4949657;28;20471;-75
2021/03/07 01:17:35;;;;;;;11.73;5.90;;;;;;;0.69;67.35;102935.63;4930709;28;20141;-76
2021/03/07 01:20:13;;;;;;;11.95;6.22;;;;;;;0.65;67.36;102928.78;4950825;28;20431;-75
2021/03/07 01:22:50;;;;;;;10.35;6.03;;;;;;;0.61;67.47;102938.34;4961143;28;20065;-73
2021/03/07 01:25:20;;;;;;;;;;;;;;;0.60;67.41;102931.47;4935745;29;20705;-74
2021/03/07 01:27:48;;;;;;;15.05;6.57;;;;;;;0.58;67.34;102928.91;4955439;28;19982;-75
2021/03/07 01:30:17;;;;;;;15.13;6.13;;;;;;;0.55;66.93;102933.31;4958825;28;20663;-74
2021/03/07 01:32:43;;;;;;;11.80;6.50;;;;;;;0.45;67.58;102916.25;4950933;28;20110;-75
2021/03/07 01:35:10;;;;;;;14.27;6.45;;;;;;;0.36;68.28;102906.97;4964430;28;20067;-75
2021/03/07 01:37:37;;;;;;;10.73;6.53;;;;;;;0.50;67.73;102924.78;4942613;28;20156;-75
2021/03/07 01:40:08;;;;;;;13.82;7.18;;;;;;;0.46;66.88;102924.00;4966013;28;20090;-75
2021/03/07 01:42:35;;;;;;;11.85;6.80;;;;;;;0.47;67.54;102919.66;4941946;28;20581;-76
2021/03/07 01:45:01;;;;;;;11.05;5.93;;;;;;;0.36;67.73;102901.81;4959401;28;20168;-75
2021/03/07 01:47:32;;;;;;;12.38;6.15;;;;;;;0.43;67.67;102910.28;4964399;28;20541;-74
2021/03/07 01:49:59;;;;;;;9.65;5.47;;;;;;;0.38;67.49;102900.91;4958030;28;20071;-77
2021/03/07 01:52:25;;;;;;;11.80;6.40;;;;;;;0.39;67.97;102905.19;4969717;28;20086;-76
2021/03/07 01:54:51;;;;;;;11.73;5.78;;;;;;;0.39;68.17;102914.66;4948610;28;20054;-77
2021/03/07 01:57:20;;;;;;;11.90;5.93;;;;;;;0.33;68.43;102896.69;4948064;28;20154;-77
2021/03/07 01:59:48;;;;;;;10.27;5.38;;;;;;;0.33;68.03;102907.91;4954087;28;20479;-77
2021/03/07 02:02:14;;;;;;;11.85;5.43;;;;;;;0.32;68.16;102895.00;4939736;28;20054;-77
2021/03/07 02:04:41;;;;;;;12.25;5.57;;;;;;;0.18;67.15;102864.28;4942308;28;20069;-77
2021/03/07 02:07:08;;;;;;;9.10;5.65;;;;;;;0.29;67.18;102876.97;4963032;28;20569;-77
2021/03/07 02:09:34;;;;;;;14.63;6.32;;;;;;;0.16;68.80;102859.16;4967616;28;20113;-77
2021/03/07 02:12:01;;;;;;;10.98;5.20;;;;;;;0.34;68.15;102864.84;4957842;28;20145;-76
2021/03/07 02:14:30;;;;;;;17.77;5.95;;;;;;;0.33;68.00;102873.47;4944398;28;20165;-76
2021/03/07 02:16:58;;;;;;;8.88;4.90;;;;;;;0.25;67.62;102873.59;4960281;28;20062;-76
2021/03/07 02:19:34;;;;;;;9.40;4.80;;;;;;;0.20;67.79;102865.13;4964805;28;20798;-76
2021/03/07 02:22:05;;;;;;;10.93;5.38;;;;;;;0.18;67.24;102862.56;4930643;28;20305;-77
2021/03/07 02:24:32;;;;;;;9.13;5.25;;;;;;;0.03;67.72;102842.19;4960392;28;20134;-77
2021/03/07 02:26:59;;;;;;;8.25;5.20;;;;;;;0.13;67.39;102856.63;4937624;28;20810;-76
2021/03/07 02:29:26;;;;;;;9.32;5.13;;;;;;;0.09;67.92;102854.13;4962205;28;20062;-77
2021/03/07 02:32:00;;;;;;;10.60;5.45;;;;;;;0.11;68.38;102847.22;4963354;28;20122;-77
2021/03/07 02:34:50;;;;;;;11.93;6.00;;;;;;;0.16;68.17;102848.84;4958078;28;20469;-77
2021/03/07 02:37:20;;;;;;;10.32;5.75;;;;;;;0.03;68.04;102838.78;4954307;28;20491;-77
2021/03/07 02:39:47;;;;;;;11.25;4.93;;;;;;;0.09;67.36;102844.66;4939763;28;20142;-77
2021/03/07 02:42:20;;;;;;;12.52;5.65;;;;;;;0.06;67.65;102841.28;4960999;28;20162;-77
2021/03/07 02:44:52;;;;;;;8.48;5.22;;;;;;;0.05;66.89;102844.75;4957301;28;20157;-78
2021/03/07 02:47:20;;;;;;;8.15;4.95;;;;;;;0.02;67.84;102837.06;4964812;28;20138;-76
2021/03/07 02:49:47;;;;;;;11.40;5.53;;;;;;;0.04;67.90;102843.91;4938183;28;20160;-76
2021/03/07 02:52:14;;;;;;;7.90;5.22;;;;;;;0.02;67.96;102835.34;4944726;28;20078;-76
2021/03/07 02:54:42;;;;;;;10.60;5.47;;;;;;;-0.01;67.95;102833.66;4932416;28;20269;-76
2021/03/07 02:57:09;;;;;;;9.03;5.27;;;;;;;-0.10;68.58;102826.09;4946987;28;20066;-78
2021/03/07 02:59:39;;;;;;;10.05;5.18;;;;;;;-0.07;68.39;102831.19;4947328;28;20066;-76
2021/03/07 03:02:05;;;;;;;9.07;5.05;;;;;;;-0.11;68.10;102829.56;4929463;28;20502;-76
2021/03/07 03:04:38;;;;;;;8.77;4.75;;;;;;;-0.11;67.79;102832.13;4963963;28;20085;-76
2021/03/07 03:07:07;;;;;;;8.63;5.22;;;;;;;-0.13;68.43;102828.72;4951837;28;20110;-76
2021/03/07 03:09:34;;;;;;;;;;;;;;;-0.18;67.99;102822.78;4951612;28;20094;-78
2021/03/07 03:12:01;;;;;;;11.10;4.97;;;;;;;-0.21;68.20;102820.28;4946454;28;19984;-78
2021/03/07 03:14:27;;;;;;;9.90;5.20;;;;;;;-0.33;68.51;102808.47;4968270;28;20137;-77
2021/03/07 03:16:58;;;;;;;10.98;6.30;;;;;;;-0.25;68.60;102816.91;4962031;28;21079;-78
2021/03/07 03:19:27;;;;;;;8.13;5.18;;;;;;;-0.23;68.75;102809.16;4954104;28;20054;-77
2021/03/07 03:21:54;;;;;;;11.45;5.10;;;;;;;-0.26;68.13;102807.44;4960324;28;20554;-77
2021/03/07 03:24:21;;;;;;;8.32;5.38;;;;;;;-0.24;68.52;102807.44;4965931;28;20058;-78
2021/03/07 03:26:48;;;;;;;11.13;5.45;;;;;;;-0.22;69.21;102803.97;4968109;28;20098;-79
2021/03/07 03:29:14;;;;;;;8.30;4.90;;;;;;;-0.24;68.44;102803.13;4944857;28;20066;-78
2021/03/07 03:31:41;;;;;;;12.40;5.70;;;;;;;-0.29;68.49;102807.53;4971236;28;20089;-78
2021/03/07 03:34:08;;;;;;;11.23;5.85;;;;;;;-0.35;68.30;102799.91;4958410;28;20105;-77
2021/03/07 03:36:39;;;;;;;9.80;5.20;;;;;;;-0.33;68.28;102805.88;4945016;28;20535;-78
2021/03/07 03:39:11;;;;;;;10.32;4.93;;;;;;;-0.37;67.74;102800.78;4953976;28;20550;-77
2021/03/07 03:41:37;;;;;;;9.90;5.15;;;;;;;-0.39;68.61;102803.41;4946125;28;20050;-78
2021/03/07 03:44:08;;;;;;;11.07;5.75;;;;;;;-0.43;69.09;102796.63;4956704;28;20059;-76
2021/03/07 03:46:39;;;;;;;10.20;5.20;;;;;;;-0.46;68.32;102788.91;4936560;28;20058;-75
2021/03/07 03:49:25;;;;;;;9.98;5.00;;;;;;;-0.49;68.58;102791.53;4960831;28;20069;-77
2021/03/07 03:52:02;;;;;;;13.80;5.22;;;;;;;-0.51;68.52;102795.88;4958823;28;20490;-77
2021/03/07 03:54:31;;;;;;;11.80;5.22;;;;;;;-0.53;68.69;102797.63;4945897;28;20066;-77
2021/03/07 03:56:59;;;;;;;10.13;5.38;;;;;;;-0.53;68.46;102793.34;4957422;28;20150;-77
2021/03/07 03:59:28;;;;;;;11.25;5.55;;;;;;;-0.68;69.09;102771.25;4949630;28;20857;-78
2021/03/07 04:01:58;;;;;;;9.02;5.10;;;;;;;-0.60;69.39;102779.69;4936913;28;20146;-76
2021/03/07 04:04:27;;;;;;;10.00;5.35;;;;;;;-0.54;69.66;102793.38;4951968;28;20141;-77
2021/03/07 04:06:55;;;;;;;10.05;5.07;;;;;;;-0.62;69.26;102776.28;4951986;28;20130;-77
2021/03/07 04:09:22;;;;;;;9.50;5.18;;;;;;;-0.54;69.00;102789.06;4963748;28;20166;-77
2021/03/07 04:11:49;;;;;;;7.13;4.70;;;;;;;-0.55;68.46;102786.50;4963971;28;20553;-77
2021/03/07 04:14:17;;;;;;;10.80;5.40;;;;;;;-0.64;68.17;102778.03;4938750;28;20094;-77
2021/03/07 04:16:46;;;;;;;11.40;5.85;;;;;;;-0.61;68.57;102788.31;4959831;28;20149;-77
2021/03/07 04:19:12;;;;;;;11.52;5.82;;;;;;;-0.61;69.68;102787.44;4953619;28;20133;-76
2021/03/07 04:21:40;;;;;;;10.85;5.25;;;;;;;-0.66;68.69;102784.13;4945465;28;20109;-76
2021/03/07 04:24:07;;;;;;;12.38;5.50;;;;;;;-0.65;68.75;102790.94;4958400;28;20074;-77
2021/03/07 04:26:34;;;;;;;13.68;5.28;;;;;;;-0.75;67.88;102784.25;4964360;28;20062;-77
2021/03/07 04:29:00;;;;;;;8.07;5.05;;;;;;;-0.78;68.23;102768.84;4961570;28;20063;-76
2021/03/07 04:31:27;;;;;;;9.15;5.22;;;;;;;-0.70;68.63;102791.03;4923762;28;20110;-76
2021/03/07 04:33:53;;;;;;;12.13;5.15;;;;;;;-0.74;68.94;102780.81;4947553;28;20496;-76
2021/03/07 04:36:19;;;;;;;11.05;5.38;;;;;;;-0.74;69.04;102786.81;4952628;28;20065;-76
2021/03/07 04:38:45;;;;;;;8.13;4.85;;;;;;;-0.73;69.45;102780.78;4944712;28;20066;-76
2021/03/07 04:41:11;;;;;;;9.38;6.13;;;;;;;-0.73;69.11;102791.06;4940377;28;20503;-76
2021/03/07 04:43:52;;;;;;;12.77;7.47;;;;;;;-0.81;69.39;102780.03;4958843;28;20105;-77
2021/03/07 04:46:46;;;;;;;10.02;6.53;;;;;;;-0.88;68.92;102771.59;4939263;28;20057;-78
2021/03/07 04:49:12;;;;;;;15.10;6.78;;;;;;;-0.82;69.10;102781.78;4963730;28;20114;-76
2021/03/07 04:51:38;;;;;;;13.43;7.15;;;;;;;-0.82;68.90;102773.22;4962558;28;20072;-76
2021/03/07 04:54:05;;;;;;;11.88;6.97;;;;;;;-0.88;69.40;102774.16;4945145;28;20101;-76
2021/03/07 04:56:31;;;;;;;17.73;8.00;;;;;;;-0.85;70.17;102775.81;4946494;28;20398;-77
2021/03/07 04:58:57;;;;;;;20.75;7.72;;;;;;;-0.93;69.59;102762.22;4954158;28;20109;-76
2021/03/07 05:01:24;;;;;;;10.98;6.95;;;;;;;-0.88;69.38;102766.44;4960448;28;20148;-76
2021/03/07 05:03:53;;;;;;;15.18;7.68;;;;;;;-0.90;69.89;102768.19;4953535;28;20062;-77
2021/03/07 05:06:23;;;;;;;11.55;6.63;;;;;;;-0.91;70.00;102769.03;4946241;28;20082;-76
2021/03/07 05:08:49;;;;;;;12.50;6.65;;;;;;;-0.97;69.51;102765.72;4960645;28;20133;-76
2021/03/07 05:11:16;;;;;;;14.30;6.95;;;;;;;-0.90;69.87;102769.88;4933629;28;20082;-76
2021/03/07 05:13:42;;;;;;;11.73;7.10;;;;;;;-1.08;69.46;102740.13;4956203;28;20954;-77
2021/03/07 05:16:08;;;;;;;11.82;6.22;;;;;;;-0.93;69.73;102755.34;4966015;28;20055;-76
2021/03/07 05:18:35;;;;;;;12.80;6.18;;;;;;;-0.82;69.70;102774.06;4939330;28;20090;-76
2021/03/07 05:21:02;;;;;;;14.68;6.28;;;;;;;-0.82;70.41;102768.06;4941140;28;20063;-77
2021/03/07 05:23:28;;;;;;;13.13;6.90;;;;;;;-0.82;70.50;102768.06;4959452;28;20063;-77
2021/03/07 05:25:54;;;;;;;12.43;6.22;;;;;;;-0.82;70.44;102757.75;4932074;28;20979;-76
2021/03/07 05:28:21;;;;;;;14.60;6.38;;;;;;;-0.76;70.72;102767.09;4946653;28;20054;-77
2021/03/07 05:30:47;;;;;;;10.02;6.40;;;;;;;-0.71;70.40;102773.00;4964494;28;20057;-78
2021/03/07 05:33:15;;;;;;;14.65;6.68;;;;;;;-0.71;70.72;102771.28;4966828;28;20418;-78
2021/03/07 05:35:43;;;;;;;10.75;6.78;;;;;;;-0.69;70.86;102771.25;4965076;28;20085;-78
2021/03/07 05:38:10;;;;;;;11.73;6.63;;;;;;;-0.67;70.42;102765.19;4970017;28;20113;-77
2021/03/07 05:40:36;;;;;;;10.18;6.28;;;;;;;-0.63;70.37;102766.00;4963239;28;20066;-77
2021/03/07 05:43:06;;;;;;;13.60;5.85;;;;;;;-0.63;70.13;102769.44;4943315;28;20506;-77
2021/03/07 05:45:32;;;;;;;9.35;5.90;;;;;;;-0.63;70.76;102769.44;4969245;28;20996;-77
2021/03/07 05:47:58;;;;;;;9.45;6.10;;;;;;;-0.65;70.17;102758.31;4962744;28;20097;-77
2021/03/07 05:50:25;;;;;;;14.77;6.47;;;;;;;-0.60;70.04;102765.97;4967104;28;20062;-77
2021/03/07 05:52:57;;;;;;;10.70;5.57;;;;;;;-0.61;69.95;102761.66;4960884;28;20141;-77
2021/03/07 05:55:27;;;;;;;11.13;6.47;;;;;;;-0.65;70.80;102757.44;4963026;28;20051;-77
2021/03/07 05:57:59;;;;;;;12.95;5.97;;;;;;;-0.62;70.10;102752.25;4948826;28;20054;-77
2021/03/07 06:00:26;;;;;;;13.00;5.78;;;;;;;-0.60;70.35;102750.50;4965344;28;20055;-77
2021/03/07 06:02:52;;;;;;;13.10;6.60;;;;;;;-0.66;71.06;102741.13;4938582;29;20150;-77
2021/03/07 06:05:19;;;;;;;8.82;5.43;;;;;;;-0.53;70.82;102748.66;4958298;28;20055;-77
2021/03/07 06:07:49;;;;;;;18.33;7.22;;;;;;;-0.51;70.73;102740.03;4952984;28;20066;-77
2021/03/07 06:10:20;;;;;;;11.27;5.60;;;;;;;-0.51;70.64;102737.44;4958166;28;20090;-78
2021/03/07 06:13:02;;;;;;;11.07;5.45;;;;;;;-0.53;71.21;102731.47;4939915;28;20126;-77
2021/03/07 06:15:47;;;;;;;11.38;5.40;;;;;;;-0.52;70.62;102732.31;4959532;28;20084;-77
2021/03/07 06:18:18;;;;;;;9.57;5.40;;;;;;;-0.50;71.38;102733.13;4954350;28;20949;-77
2021/03/07 06:20:47;;;;;;;9.55;5.13;;;;;;;-0.46;71.53;102735.63;4957451;28;20767;-77
2021/03/07 06:23:13;;;;;;;7.63;5.05;;;;;;;-0.48;71.01;102714.16;4958273;28;20475;-78
2021/03/07 06:25:52;;;;;;;9.05;5.63;;;;;;;-0.35;71.54;102726.81;4962928;28;20897;-78
2021/03/07 06:28:27;;;;;;;9.65;5.22;;;;;;;-0.28;71.19;102728.41;4957023;28;20062;-78
2021/03/07 06:30:54;;;;;;;9.05;5.57;;;;;;;-0.24;71.40;102733.47;4967670;28;20462;-78
2021/03/07 06:33:35;;;;;;;10.65;6.15;;;;;;;-0.22;72.31;102729.16;4955161;28;20116;-77
2021/03/07 06:36:21;;;;;;;12.48;6.03;;;;;;;-0.16;72.29;102733.34;4963059;28;20507;-77
2021/03/07 06:38:49;;;;;;;17.08;6.32;;;;;;;-0.11;72.38;102728.09;4954534;28;20474;-78
2021/03/07 06:41:18;;;;;;;9.52;6.13;;;;;;;-0.03;71.87;102733.94;4967366;28;20133;-77
2021/03/07 06:43:45;;;;;;;9.70;5.55;;;;;;;0.03;71.78;102726.09;4944134;28;20113;-78
2021/03/07 06:46:35;;;;;;;12.52;5.72;;;;;;;0.12;71.82;102728.47;4949053;28;20538;-77
2021/03/07 06:49:06;;;;;;;11.07;6.13;;;;;;;0.12;72.52;102719.91;4949855;28;20058;-77
2021/03/07 06:51:34;;;;;;;12.18;5.68;;;;;;;0.24;72.35;102729.09;4950365;28;20092;-77
2021/03/07 06:54:14;;;;;;;10.88;5.05;;;;;;;0.28;71.98;102723.00;4944375;28;20094;-78
2021/03/07 06:56:59;;;;;;;9.55;5.72;;;;;;;0.39;72.14;102726.16;4949175;28;20113;-77
2021/03/07 06:59:25;;;;;;;9.85;5.38;;;;;;;0.41;71.51;102711.50;4946035;28;20062;-77
2021/03/07 07:01:53;;;;;;;11.75;6.30;;;;;;;0.43;73.90;102720.06;4964069;28;20058;-77
2021/03/07 07:04:21;;;;;;;13.55;5.93;;;;;;;0.44;73.66;102711.44;4961065;28;20063;-77
2021/03/07 07:07:21;;;;;;;10.23;5.68;;;;;;;0.50;72.98;102720.78;4932452;28;20066;-78
2021/03/07 07:09:56;;;;;;;15.02;6.35;;;;;;;0.59;73.57;102728.31;4947827;28;20118;-78
2021/03/07 07:12:25;;;;;;;9.95;5.97;;;;;;;0.69;73.39;102727.22;4938121;28;20073;-77
2021/03/07 07:15:05;;;;;;;12.95;6.40;;;;;;;0.69;73.58;102718.63;4964685;28;20063;-77
2021/03/07 07:17:32;;;;;;;14.50;5.90;;;;;;;0.79;73.67;102726.13;4955203;28;20150;-77
2021/03/07 07:19:58;;;;;;;9.43;5.78;;;;;;;0.87;73.86;102730.25;4961620;28;20055;-77
2021/03/07 07:22:24;;;;;;;12.50;5.72;;;;;;;0.89;74.31;102726.75;4959404;28;20063;-76
2021/03/07 07:24:50;;;;;;;9.93;6.38;;;;;;;0.95;74.51;102728.34;4950868;28;20602;-76
2021/03/07 07:27:16;;;;;;;13.32;5.75;;;;;;;1.03;74.80;102730.72;4934036;28;20824;-76
2021/03/07 07:29:42;;;;;;;9.82;5.20;;;;;;;1.04;74.89;102729.84;4946396;28;20058;-76
2021/03/07 07:32:23;;;;;;;10.45;5.60;;;;;;;1.13;74.37;102727.88;4959549;28;20050;-77
2021/03/07 07:34:57;;;;;;;10.13;4.90;;;;;;;1.24;74.09;102726.78;4959105;28;20062;-76
2021/03/07 07:37:29;;;;;;;8.02;4.80;;;;;;;1.29;73.99;102717.13;4947270;28;20486;-77
2021/03/07 07:39:56;;;;;;;9.32;4.45;;;;;;;1.41;74.29;102721.97;4945006;28;20090;-78
2021/03/07 07:42:29;;;;;;;10.45;5.45;;;;;;;1.45;74.93;102725.34;4946388;28;20093;-76
2021/03/07 07:45:18;;;;;;;8.70;4.32;;;;;;;1.53;74.33;102715.63;4944725;28;20129;-77
2021/03/07 07:47:46;;;;;;;6.22;3.85;;;;;;;1.64;74.10;102721.38;4966587;28;20066;-76
2021/03/07 07:50:31;;;;;;;9.60;4.60;;;;;;;1.74;74.06;102722.81;4944357;28;20055;-78
2021/03/07 07:53:17;;;;;;;7.88;4.10;;;;;;;1.81;74.05;102718.31;4949042;28;20061;-76
2021/03/07 07:56:03;;;;;;;9.52;3.83;;;;;;;1.96;73.59;102722.19;4947906;28;20086;-76
2021/03/07 07:58:40;;;;;;;8.77;4.45;;;;;;;2.07;73.52;102721.91;4962747;28;20605;-75
2021/03/07 08:01:08;;;;;;;8.32;4.10;;;;;;;2.18;72.79;102720.69;4960080;28;20117;-76
2021/03/07 08:03:39;;;;;;;10.98;4.53;;;;;;;2.25;73.09;102712.75;4952717;28;20062;-77
2021/03/07 08:06:22;;;;;;;8.30;4.45;;;;;;;2.31;72.70;102715.16;4933876;28;20074;-75
2021/03/07 08:08:48;;;;;;;5.63;3.88;;;;;;;2.45;72.60;102722.50;4964356;28;20050;-76
2021/03/07 08:11:33;;;;;;;6.53;4.10;;;;;;;2.53;73.00;102718.78;4935231;28;20050;-78
2021/03/07 08:14:00;;;;;;;10.93;4.88;;;;;;;2.54;72.63;102727.41;4946698;28;20062;-77
2021/03/07 08:16:48;;;;;;;10.15;4.78;;;;;;;2.60;72.63;102723.78;4965217;28;20128;-77
2021/03/07 08:19:41;;;;;;;9.85;4.82;;;;;;;2.68;72.47;102725.22;4948849;28;20082;-77
2021/03/07 08:22:08;;;;;;;6.75;4.20;;;;;;;2.80;72.46;102728.31;4962256;28;20062;-78
2021/03/07 08:24:55;;;;;;;11.80;4.13;;;;;;;2.91;72.00;102724.47;4929676;28;20059;-77
2021/03/07 08:27:41;;;;;;;9.98;5.03;;;;;;;3.01;71.90;102719.00;4950801;28;20051;-76
2021/03/07 08:30:09;;;;;;;11.80;4.40;;;;;;;3.05;71.63;102720.59;4935599;28;20083;-76
2021/03/07 08:32:39;;;;;;;8.00;4.55;;;;;;;3.14;71.33;102721.13;4954849;28;20113;-76
2021/03/07 08:35:17;;;;;;;6.10;3.78;;;;;;;3.24;70.86;102721.69;4958757;28;20058;-77
2021/03/07 08:38:15;;;;;;;7.20;4.05;;;;;;;3.34;70.67;102730.00;4952193;28;20063;-77
2021/03/07 08:40:43;;;;;;;8.17;4.53;;;;;;;3.35;70.47;102709.19;4932254;28;20085;-76
2021/03/07 08:43:24;;;;;;;7.70;4.10;;;;;;;3.52;70.54;102712.94;4942491;28;20297;-77
2021/03/07 08:46:12;;;;;;;10.43;4.00;;;;;;;3.63;70.39;102721.19;4947190;28;20062;-75
2021/03/07 08:48:42;;;;;;;9.35;3.97;;;;;;;3.66;69.46;102721.06;4957473;28;20098;-76
2021/03/07 08:51:09;;;;;;;8.63;4.05;;;;;;;3.72;69.33;102707.03;4964064;28;20145;-78
2021/03/07 08:53:41;;;;;;;9.10;3.92;;;;;;;3.84;69.01;102713.50;4950365;28;20129;-77
2021/03/07 08:56:11;;;;;;;11.52;4.13;;;;;;;3.89;68.37;102716.81;4947366;28;20075;-76
2021/03/07 08:58:38;;;;;;;9.57;4.78;;;;;;;3.90;66.89;102695.13;4963555;28;20062;-77
2021/03/07 09:01:07;;;;;;;6.28;3.35;;;;;;;3.97;65.53;102713.00;4943863;28;20070;-76
2021/03/07 09:03:34;;;;;;;5.43;3.65;;;;;;;4.00;65.40;102706.00;4928911;28;20066;-75
2021/03/07 09:06:10;;;;;;;6.07;3.45;;;;;;;4.04;66.06;102702.38;4963557;28;20546;-75
2021/03/07 09:08:37;;;;;;;7.47;3.60;;;;;;;4.18;65.88;102709.69;4940906;28;20078;-75
2021/03/07 09:11:08;;;;;;;9.55;3.72;;;;;;;4.18;64.83;102700.13;4968096;28;20129;-76
2021/03/07 09:13:46;;;;;;;8.75;4.45;;;;;;;4.23;62.70;102703.38;4942693;28;20934;-76
2021/03/07 09:16:12;;;;;;;8.88;4.10;;;;;;;4.25;63.28;102695.53;4967736;28;20112;-76
2021/03/07 09:18:39;;;;;;;6.85;4.35;;;;;;;4.32;63.28;102692.63;4951920;28;20071;-75
2021/03/07 09:21:18;;;;;;;7.60;3.85;;;;;;;4.38;62.36;102695.91;4956384;28;20798;-75
2021/03/07 09:23:49;;;;;;;9.10;3.95;;;;;;;4.43;62.15;102691.38;4964468;28;20063;-75
2021/03/07 09:26:23;;;;;;;6.28;3.95;;;;;;;4.46;60.27;102686.91;4961309;28;20153;-75
2021/03/07 09:28:54;;;;;;;7.35;3.83;;;;;;;4.45;58.64;102680.03;4966370;28;20807;-75
2021/03/07 09:31:37;;;;;;;5.88;3.58;;;;;;;4.69;59.65;102685.13;4960682;28;20058;-75
2021/03/07 09:34:04;;;;;;;6.35;3.42;;;;;;;4.79;55.98;102685.63;4939850;28;20462;-75
2021/03/07 09:36:36;;;;;;;4.60;2.60;;;;;;;4.83;53.38;102680.22;4924612;28;20542;-75
2021/03/07 09:39:07;;;;;;;5.50;3.03;;;;;;;5.03;55.11;102681.13;4969198;28;20147;-75
2021/03/07 09:41:37;;;;;;;4.32;2.42;;;;;;;5.15;53.17;102686.69;4946432;28;20095;-75
2021/03/07 09:44:06;;;;;;;12.48;2.70;;;;;;;5.21;50.24;102682.09;4965567;28;20161;-75
2021/03/07 09:46:33;;;;;;;;;;;;;;;5.24;49.65;102680.22;4959456;28;20661;-76
2021/03/07 09:49:03;;;;;;;4.50;2.47;;;;;;;5.42;50.95;102686.38;4960454;28;20004;-75
2021/03/07 09:51:32;;;;;;;6.78;2.30;;;;;;;5.42;48.11;102680.34;4968202;28;20157;-75
2021/03/07 09:53:59;;;;;;;3.67;2.30;;;;;;;5.38;49.90;102671.81;4958409;28;20109;-75
2021/03/07 09:56:33;;;;;;;3.58;1.80;;;;;;;5.38;48.42;102682.22;4965389;28;20058;-74
2021/03/07 09:59:14;;;;;;;3.70;2.15;;;;;;;5.43;48.62;102682.00;4956590;28;20861;-75
2021/03/07 10:01:51;;;;;;;3.33;1.88;;;;;;;5.53;51.02;102665.94;4962140;28;20138;-75
2021/03/07 10:04:30;;;;;;;4.30;2.00;;;;;;;5.63;48.53;102675.94;4933020;28;20141;-75
2021/03/07 10:06:57;;;;;;;6.90;2.33;;;;;;;5.72;49.55;102680.72;4946717;28;20138;-76
2021/03/07 10:09:24;;;;;;;3.13;1.70;;;;;;;5.83;48.55;102673.28;4958872;28;20055;-76
2021/03/07 10:12:02;;;;;;;2.63;2.03;;;;;;;6.02;50.06;102678.53;4964113;28;20086;-76
2021/03/07 10:14:32;;;;;;;4.18;2.22;;;;;;;6.25;49.86;102677.44;4951807;28;20059;-75
2021/03/07 10:17:00;;;;;;;3.95;2.33;;;;;;;6.38;49.59;102669.88;4952406;28;20065;-76
2021/03/07 10:19:35;;;;;;;6.23;2.03;;;;;;;6.48;46.75;102665.06;4964394;28;20069;-76
2021/03/07 10:22:04;;;;;;;4.20;2.20;;;;;;;6.42;47.04;102663.59;4941355;28;20391;-76
2021/03/07 10:24:32;;;;;;;4.20;1.70;;;;;;;6.49;48.19;102659.78;4964719;28;20145;-75
2021/03/07 10:27:04;;;;;;;3.92;1.63;;;;;;;6.49;46.70;102653.72;4959555;28;20134;-76
2021/03/07 10:29:36;;;;;;;2.88;1.40;;;;;;;6.50;48.56;102648.41;4962124;28;20894;-75
2021/03/07 10:32:19;;;;;;;6.13;1.85;;;;;;;6.59;47.37;102641.09;4934735;28;20070;-76
2021/03/07 10:34:52;;;;;;;3.22;1.70;;;;;;;6.60;45.95;102643.59;4964494;28;20058;-77
2021/03/07 10:37:34;;;;;;;3.53;1.70;;;;;;;6.77;47.34;102640.16;4960051;28;20507;-76
2021/03/07 10:40:03;;;;;;;4.13;1.88;;;;;;;6.96;47.08;102642.69;4963967;28;20066;-75
2021/03/07 10:42:43;;;;;;;2.33;1.80;;;;;;;6.98;44.78;102634.75;4958710;28;20063;-74
2021/03/07 10:45:20;;;;;;;5.45;2.00;;;;;;;7.26;46.25;102635.03;4957965;28;20086;-75
2021/03/07 10:48:06;;;;;;;3.80;2.10;;;;;;;7.31;44.96;102634.78;4960278;28;20709;-76
2021/03/07 10:50:34;;;;;;;4.22;1.92;;;;;;;7.48;44.78;102626.06;4947958;28;20434;-75
2021/03/07 10:53:00;;;;;;;6.28;2.30;;;;;;;7.41;44.74;102629.91;4961186;28;20065;-75
2021/03/07 10:55:27;;;;;;;4.07;1.92;;;;;;;7.38;43.62;102610.03;4946298;28;20058;-77
2021/03/07 10:57:53;;;;;;;6.45;2.22;;;;;;;7.61;44.47;102614.03;4942832;28;20082;-76
2021/03/07 11:00:21;;;;;;;6.97;2.25;;;;;;;7.95;45.13;102622.63;4955349;28;20065;-75
2021/03/07 11:02:47;;;;;;;3.17;1.97;;;;;;;8.14;43.56;102614.63;4960359;28;20061;-75
2021/03/07 11:05:15;;;;;;;3.80;2.00;;;;;;;8.28;42.17;102609.44;4940879;28;20084;-75
2021/03/07 11:07:42;;;;;;;7.30;2.40;;;;;;;8.55;42.42;102610.59;4964318;28;20680;-74
2021/03/07 11:10:12;;;;;;;3.00;2.20;;;;;;;8.53;41.67;102595.00;4959345;28;20149;-75
2021/03/07 11:12:38;;;;;;;4.35;1.92;;;;;;;8.73;42.67;102609.50;4941764;28;20156;-76
2021/03/07 11:15:06;;;;;;;4.15;1.90;;;;;;;8.56;41.51;102593.94;4962607;28;20141;-75
2021/03/07 11:17:33;;;;;;;4.82;2.35;;;;;;;8.66;42.60;102601.19;4961236;28;20085;-77
2021/03/07 11:19:59;;;;;;;4.13;1.77;;;;;;;8.31;40.19;102595.34;4964685;28;20089;-76
2021/03/07 11:22:26;;;;;;;4.53;2.60;;;;;;;8.65;41.69;102594.25;4958331;28;20110;-75
2021/03/07 11:24:52;;;;;;;6.78;2.13;;;;;;;9.12;41.94;102599.38;4961058;28;20153;-75
2021/03/07 11:27:18;;;;;;;4.80;1.52;;;;;;;9.44;40.91;102592.13;4954405;28;20134;-75
2021/03/07 11:29:44;;;;;;;2.08;1.30;;;;;;;9.66;41.25;102594.25;4963788;28;20157;-75
2021/03/07 11:32:10;;;;;;;3.20;1.50;;;;;;;9.70;38.80;102595.72;4958030;28;20090;-75
2021/03/07 11:34:37;;;;;;;2.67;1.25;;;;;;;9.58;39.17;102586.88;4959311;28;20813;-75
2021/03/07 11:37:04;;;;;;;4.45;1.30;;;;;;;9.44;38.84;102589.50;4943447;29;20058;-75
2021/03/07 11:39:30;;;;;;;3.15;1.42;;;;;;;9.45;40.12;102593.84;4936120;28;20601;-75
2021/03/07 11:41:57;;;;;;;3.67;1.40;;;;;;;9.18;40.55;102604.22;4960477;28;20150;-75